KPHN/PHN METAR and TAF weather

Enter ICAO airport designator
Station Type Date Time Source
KPHN METAR 2021/01/27 13:55 UTC NOAA

KPHN 271355Z AUTO 30005KT 10SM CLR M09/M12 A3026 RMK AO2


Station Type Date Time Source
KPHN Decoded METAR 2021/01/27 13:55 UTC NOAA

St. Clair County International, MI, United States (KPHN) 42-55N 082-32W
Jan 27, 2021 - 08:55 AM EST / 2021.01.27 1355 UTC
Wind: from the WNW (300 degrees) at 6 MPH (5 KT):0
Visibility: 10 mile(s):0
Sky conditions: clear
Temperature: 15 F (-9 C)
Windchill: 6 F (-14 C):1
Dew Point: 10 F (-12 C)
Relative Humidity: 78%
Pressure (altimeter): 30.26 in. Hg (1024 hPa)
ob: KPHN 271355Z AUTO 30005KT 10SM CLR M09/M12 A3026 RMK AO2
cycle: 14

Station Type Date Time Source
KPHN TAF UTC NOAA

Error!

Example: see airport list